sensor_id;sensor_type;location;lat;lon;timestamp;P1;durP1;ratioP1;P2;durP2;ratioP2
52208;SDS011;38507;53.132;6.394;2022-09-09T00:04:12;11.25;;;7.28;;
52208;SDS011;38507;53.132;6.394;2022-09-09T00:10:29;9.73;;;6.70;;
52208;SDS011;38507;53.132;6.394;2022-09-09T00:15:48;14.10;;;6.80;;
52208;SDS011;38507;53.132;6.394;2022-09-09T00:21:07;9.93;;;6.32;;
52208;SDS011;38507;53.132;6.394;2022-09-09T00:23:38;9.70;;;6.47;;
52208;SDS011;38507;53.132;6.394;2022-09-09T00:31:38;10.52;;;6.30;;
52208;SDS011;38507;53.132;6.394;2022-09-09T00:34:08;14.02;;;7.22;;
52208;SDS011;38507;53.132;6.394;2022-09-09T00:36:38;13.07;;;7.30;;
52208;SDS011;38507;53.132;6.394;2022-09-09T00:39:05;10.63;;;6.53;;
52208;SDS011;38507;53.132;6.394;2022-09-09T00:44:38;16.10;;;6.32;;
52208;SDS011;38507;53.132;6.394;2022-09-09T00:53:15;10.95;;;6.38;;
52208;SDS011;38507;53.132;6.394;2022-09-09T00:56:16;11.13;;;5.55;;
52208;SDS011;38507;53.132;6.394;2022-09-09T00:58:52;11.50;;;5.40;;
52208;SDS011;38507;53.132;6.394;2022-09-09T01:01:37;10.95;;;5.82;;
52208;SDS011;38507;53.132;6.394;2022-09-09T01:04:05;13.13;;;5.75;;
52208;SDS011;38507;53.132;6.394;2022-09-09T01:06:41;10.18;;;5.63;;
52208;SDS011;38507;53.132;6.394;2022-09-09T01:09:13;12.30;;;5.95;;
52208;SDS011;38507;53.132;6.394;2022-09-09T01:17:08;6.95;;;4.82;;
52208;SDS011;38507;53.132;6.394;2022-09-09T01:27:38;8.50;;;5.30;;
52208;SDS011;38507;53.132;6.394;2022-09-09T01:30:09;8.48;;;5.30;;
52208;SDS011;38507;53.132;6.394;2022-09-09T01:35:11;9.35;;;5.40;;
52208;SDS011;38507;53.132;6.394;2022-09-09T01:37:55;9.38;;;5.07;;
52208;SDS011;38507;53.132;6.394;2022-09-09T01:40:20;13.52;;;5.43;;
52208;SDS011;38507;53.132;6.394;2022-09-09T01:42:46;12.75;;;5.97;;
52208;SDS011;38507;53.132;6.394;2022-09-09T01:45:12;10.63;;;6.00;;
52208;SDS011;38507;53.132;6.394;2022-09-09T01:47:38;13.60;;;5.65;;
52208;SDS011;38507;53.132;6.394;2022-09-09T01:50:04;10.05;;;6.22;;
52208;SDS011;38507;53.132;6.394;2022-09-09T01:52:32;10.82;;;6.32;;
52208;SDS011;38507;53.132;6.394;2022-09-09T01:55:01;10.57;;;6.78;;
52208;SDS011;38507;53.132;6.394;2022-09-09T01:57:27;14.25;;;6.78;;
52208;SDS011;38507;53.132;6.394;2022-09-09T02:00:04;11.77;;;7.22;;
52208;SDS011;38507;53.132;6.394;2022-09-09T02:05:38;12.40;;;6.78;;
52208;SDS011;38507;53.132;6.394;2022-09-09T02:08:10;16.80;;;7.30;;
52208;SDS011;38507;53.132;6.394;2022-09-09T02:10:49;11.95;;;7.25;;
52208;SDS011;38507;53.132;6.394;2022-09-09T02:13:17;17.50;;;8.27;;
52208;SDS011;38507;53.132;6.394;2022-09-09T02:18:10;12.23;;;8.18;;
52208;SDS011;38507;53.132;6.394;2022-09-09T02:20:38;14.20;;;7.88;;
52208;SDS011;38507;53.132;6.394;2022-09-09T02:23:06;14.15;;;7.85;;
52208;SDS011;38507;53.132;6.394;2022-09-09T02:25:33;12.38;;;8.07;;
52208;SDS011;38507;53.132;6.394;2022-09-09T02:28:02;15.45;;;8.63;;
52208;SDS011;38507;53.132;6.394;2022-09-09T02:30:29;12.82;;;8.43;;
52208;SDS011;38507;53.132;6.394;2022-09-09T02:32:59;15.07;;;9.05;;
52208;SDS011;38507;53.132;6.394;2022-09-09T02:35:27;16.50;;;9.60;;
52208;SDS011;38507;53.132;6.394;2022-09-09T02:37:56;14.98;;;8.90;;
52208;SDS011;38507;53.132;6.394;2022-09-09T02:40:26;17.98;;;8.48;;
52208;SDS011;38507;53.132;6.394;2022-09-09T02:43:00;15.30;;;9.43;;
52208;SDS011;38507;53.132;6.394;2022-09-09T02:45:29;13.05;;;8.20;;
52208;SDS011;38507;53.132;6.394;2022-09-09T02:48:14;13.60;;;8.50;;
52208;SDS011;38507;53.132;6.394;2022-09-09T02:53:43;13.02;;;8.38;;
52208;SDS011;38507;53.132;6.394;2022-09-09T02:56:14;12.13;;;8.07;;
52208;SDS011;38507;53.132;6.394;2022-09-09T02:58:45;17.55;;;8.57;;
52208;SDS011;38507;53.132;6.394;2022-09-09T03:01:22;13.45;;;9.32;;
52208;SDS011;38507;53.132;6.394;2022-09-09T03:03:48;18.58;;;9.27;;
52208;SDS011;38507;53.132;6.394;2022-09-09T03:06:14;11.07;;;8.32;;
52208;SDS011;38507;53.132;6.394;2022-09-09T03:08:39;14.30;;;8.98;;
52208;SDS011;38507;53.132;6.394;2022-09-09T03:11:05;12.45;;;8.10;;
52208;SDS011;38507;53.132;6.394;2022-09-09T03:13:32;15.50;;;8.80;;
52208;SDS011;38507;53.132;6.394;2022-09-09T03:15:58;13.02;;;8.38;;
52208;SDS011;38507;53.132;6.394;2022-09-09T03:18:24;12.52;;;8.40;;
52208;SDS011;38507;53.132;6.394;2022-09-09T03:20:50;15.95;;;8.45;;
52208;SDS011;38507;53.132;6.394;2022-09-09T03:23:16;12.70;;;6.45;;
52208;SDS011;38507;53.132;6.394;2022-09-09T03:25:48;10.98;;;7.15;;
52208;SDS011;38507;53.132;6.394;2022-09-09T03:28:15;12.07;;;7.25;;
52208;SDS011;38507;53.132;6.394;2022-09-09T03:30:40;14.48;;;6.57;;
52208;SDS011;38507;53.132;6.394;2022-09-09T03:33:06;12.73;;;6.53;;
52208;SDS011;38507;53.132;6.394;2022-09-09T03:35:32;10.32;;;7.05;;
52208;SDS011;38507;53.132;6.394;2022-09-09T03:37:57;11.93;;;6.30;;
52208;SDS011;38507;53.132;6.394;2022-09-09T03:40:23;9.90;;;6.68;;
52208;SDS011;38507;53.132;6.394;2022-09-09T03:42:48;14.57;;;6.35;;
52208;SDS011;38507;53.132;6.394;2022-09-09T03:45:14;11.05;;;6.03;;
52208;SDS011;38507;53.132;6.394;2022-09-09T03:47:40;10.07;;;5.68;;
52208;SDS011;38507;53.132;6.394;2022-09-09T03:50:06;13.10;;;5.82;;
52208;SDS011;38507;53.132;6.394;2022-09-09T03:52:37;10.70;;;5.70;;
52208;SDS011;38507;53.132;6.394;2022-09-09T03:55:04;11.57;;;5.80;;
52208;SDS011;38507;53.132;6.394;2022-09-09T03:57:30;10.98;;;5.82;;
52208;SDS011;38507;53.132;6.394;2022-09-09T03:59:57;11.27;;;5.35;;
52208;SDS011;38507;53.132;6.394;2022-09-09T04:02:23;8.98;;;5.55;;
52208;SDS011;38507;53.132;6.394;2022-09-09T04:04:48;10.30;;;5.57;;
52208;SDS011;38507;53.132;6.394;2022-09-09T04:07:14;9.77;;;5.15;;
52208;SDS011;38507;53.132;6.394;2022-09-09T04:09:40;8.65;;;4.95;;
52208;SDS011;38507;53.132;6.394;2022-09-09T04:12:06;9.70;;;5.28;;
52208;SDS011;38507;53.132;6.394;2022-09-09T04:14:32;10.80;;;5.30;;
52208;SDS011;38507;53.132;6.394;2022-09-09T04:16:57;10.88;;;5.70;;
52208;SDS011;38507;53.132;6.394;2022-09-09T04:19:24;7.80;;;4.30;;
52208;SDS011;38507;53.132;6.394;2022-09-09T04:21:50;7.97;;;5.40;;
52208;SDS011;38507;53.132;6.394;2022-09-09T04:24:16;8.65;;;4.80;;
52208;SDS011;38507;53.132;6.394;2022-09-09T04:26:42;11.88;;;5.38;;
52208;SDS011;38507;53.132;6.394;2022-09-09T04:29:08;8.65;;;4.80;;
52208;SDS011;38507;53.132;6.394;2022-09-09T04:31:34;9.27;;;5.55;;
52208;SDS011;38507;53.132;6.394;2022-09-09T04:34:00;9.07;;;5.65;;
52208;SDS011;38507;53.132;6.394;2022-09-09T04:36:30;9.25;;;5.45;;
52208;SDS011;38507;53.132;6.394;2022-09-09T04:38:57;9.27;;;5.00;;
52208;SDS011;38507;53.132;6.394;2022-09-09T04:41:23;8.07;;;4.90;;
52208;SDS011;38507;53.132;6.394;2022-09-09T04:43:48;8.32;;;5.25;;
52208;SDS011;38507;53.132;6.394;2022-09-09T04:46:14;9.45;;;5.72;;
52208;SDS011;38507;53.132;6.394;2022-09-09T04:48:42;9.05;;;6.03;;
52208;SDS011;38507;53.132;6.394;2022-09-09T04:51:09;9.85;;;5.32;;
52208;SDS011;38507;53.132;6.394;2022-09-09T04:53:38;12.20;;;5.45;;
52208;SDS011;38507;53.132;6.394;2022-09-09T04:56:05;9.13;;;5.18;;
52208;SDS011;38507;53.132;6.394;2022-09-09T04:58:32;9.73;;;5.60;;
52208;SDS011;38507;53.132;6.394;2022-09-09T05:01:08;10.23;;;5.70;;
52208;SDS011;38507;53.132;6.394;2022-09-09T05:03:39;9.32;;;5.57;;
52208;SDS011;38507;53.132;6.394;2022-09-09T05:06:06;10.23;;;6.07;;
52208;SDS011;38507;53.132;6.394;2022-09-09T05:08:34;10.23;;;5.75;;
52208;SDS011;38507;53.132;6.394;2022-09-09T05:11:25;8.90;;;5.72;;
52208;SDS011;38507;53.132;6.394;2022-09-09T05:13:51;11.20;;;6.97;;
52208;SDS011;38507;53.132;6.394;2022-09-09T05:16:18;11.35;;;6.50;;
52208;SDS011;38507;53.132;6.394;2022-09-09T05:18:45;9.15;;;6.03;;
52208;SDS011;38507;53.132;6.394;2022-09-09T05:21:11;11.35;;;6.50;;
52208;SDS011;38507;53.132;6.394;2022-09-09T05:23:38;13.68;;;7.88;;
52208;SDS011;38507;53.132;6.394;2022-09-09T05:26:05;9.85;;;7.10;;
52208;SDS011;38507;53.132;6.394;2022-09-09T05:28:33;11.38;;;7.78;;
52208;SDS011;38507;53.132;6.394;2022-09-09T05:31:00;14.95;;;7.18;;
52208;SDS011;38507;53.132;6.394;2022-09-09T05:33:30;10.98;;;7.65;;
52208;SDS011;38507;53.132;6.394;2022-09-09T05:36:04;12.25;;;7.75;;
52208;SDS011;38507;53.132;6.394;2022-09-09T05:38:32;10.85;;;7.78;;
52208;SDS011;38507;53.132;6.394;2022-09-09T05:40:59;13.27;;;8.18;;
52208;SDS011;38507;53.132;6.394;2022-09-09T05:43:26;13.77;;;8.20;;
52208;SDS011;38507;53.132;6.394;2022-09-09T05:46:05;12.25;;;7.78;;
52208;SDS011;38507;53.132;6.394;2022-09-09T05:48:36;14.48;;;7.80;;
52208;SDS011;38507;53.132;6.394;2022-09-09T05:51:03;11.43;;;7.07;;
52208;SDS011;38507;53.132;6.394;2022-09-09T05:53:30;14.32;;;8.30;;
52208;SDS011;38507;53.132;6.394;2022-09-09T05:56:06;11.77;;;8.45;;
52208;SDS011;38507;53.132;6.394;2022-09-09T05:58:35;11.43;;;8.25;;
52208;SDS011;38507;53.132;6.394;2022-09-09T06:01:02;11.65;;;7.40;;
52208;SDS011;38507;53.132;6.394;2022-09-09T06:03:36;12.73;;;8.15;;
52208;SDS011;38507;53.132;6.394;2022-09-09T06:06:04;14.07;;;8.82;;
52208;SDS011;38507;53.132;6.394;2022-09-09T06:08:32;14.45;;;7.80;;
52208;SDS011;38507;53.132;6.394;2022-09-09T06:11:03;12.73;;;8.27;;
52208;SDS011;38507;53.132;6.394;2022-09-09T06:13:30;11.63;;;8.13;;
52208;SDS011;38507;53.132;6.394;2022-09-09T06:15:56;12.77;;;8.55;;
52208;SDS011;38507;53.132;6.394;2022-09-09T06:18:23;11.50;;;8.10;;
52208;SDS011;38507;53.132;6.394;2022-09-09T06:20:54;13.15;;;8.02;;
52208;SDS011;38507;53.132;6.394;2022-09-09T06:23:20;10.45;;;7.63;;
52208;SDS011;38507;53.132;6.394;2022-09-09T06:25:46;11.95;;;7.75;;
52208;SDS011;38507;53.132;6.394;2022-09-09T06:28:11;12.80;;;8.20;;
52208;SDS011;38507;53.132;6.394;2022-09-09T06:30:38;12.40;;;8.70;;
52208;SDS011;38507;53.132;6.394;2022-09-09T06:33:05;11.45;;;6.60;;
52208;SDS011;38507;53.132;6.394;2022-09-09T06:35:30;12.45;;;7.40;;
52208;SDS011;38507;53.132;6.394;2022-09-09T06:37:56;11.35;;;7.22;;
52208;SDS011;38507;53.132;6.394;2022-09-09T06:40:23;9.93;;;6.88;;
52208;SDS011;38507;53.132;6.394;2022-09-09T06:42:49;13.52;;;7.00;;
52208;SDS011;38507;53.132;6.394;2022-09-09T06:45:15;11.55;;;6.82;;
52208;SDS011;38507;53.132;6.394;2022-09-09T06:47:41;11.82;;;6.70;;
52208;SDS011;38507;53.132;6.394;2022-09-09T06:50:08;9.13;;;6.53;;
52208;SDS011;38507;53.132;6.394;2022-09-09T06:52:36;8.85;;;6.78;;
52208;SDS011;38507;53.132;6.394;2022-09-09T06:55:02;10.93;;;6.85;;
52208;SDS011;38507;53.132;6.394;2022-09-09T06:57:28;13.75;;;6.97;;
52208;SDS011;38507;53.132;6.394;2022-09-09T06:59:54;12.52;;;6.82;;
52208;SDS011;38507;53.132;6.394;2022-09-09T07:02:20;8.40;;;6.35;;
52208;SDS011;38507;53.132;6.394;2022-09-09T07:04:46;10.52;;;6.65;;
52208;SDS011;38507;53.132;6.394;2022-09-09T07:07:12;10.52;;;7.05;;
52208;SDS011;38507;53.132;6.394;2022-09-09T07:09:38;9.07;;;6.50;;
52208;SDS011;38507;53.132;6.394;2022-09-09T07:12:05;8.45;;;6.13;;
52208;SDS011;38507;53.132;6.394;2022-09-09T07:14:31;9.02;;;6.43;;
52208;SDS011;38507;53.132;6.394;2022-09-09T07:16:59;10.35;;;6.55;;
52208;SDS011;38507;53.132;6.394;2022-09-09T07:19:25;9.23;;;6.40;;
52208;SDS011;38507;53.132;6.394;2022-09-09T07:21:51;15.25;;;6.55;;
52208;SDS011;38507;53.132;6.394;2022-09-09T07:24:16;9.65;;;7.07;;
52208;SDS011;38507;53.132;6.394;2022-09-09T07:26:42;8.82;;;6.18;;
52208;SDS011;38507;53.132;6.394;2022-09-09T07:29:09;9.23;;;6.25;;
52208;SDS011;38507;53.132;6.394;2022-09-09T07:31:35;10.48;;;6.60;;
52208;SDS011;38507;53.132;6.394;2022-09-09T07:34:03;8.73;;;6.20;;
52208;SDS011;38507;53.132;6.394;2022-09-09T07:36:31;11.40;;;5.57;;
52208;SDS011;38507;53.132;6.394;2022-09-09T07:38:59;10.63;;;6.05;;
52208;SDS011;38507;53.132;6.394;2022-09-09T07:41:28;13.18;;;6.80;;
52208;SDS011;38507;53.132;6.394;2022-09-09T07:44:18;8.45;;;5.95;;
52208;SDS011;38507;53.132;6.394;2022-09-09T07:46:49;9.35;;;5.93;;
52208;SDS011;38507;53.132;6.394;2022-09-09T07:49:18;9.23;;;6.25;;
52208;SDS011;38507;53.132;6.394;2022-09-09T07:51:45;10.48;;;5.68;;
52208;SDS011;38507;53.132;6.394;2022-09-09T07:54:13;9.15;;;5.40;;
52208;SDS011;38507;53.132;6.394;2022-09-09T07:56:40;9.85;;;5.57;;
52208;SDS011;38507;53.132;6.394;2022-09-09T07:59:07;7.43;;;5.13;;
52208;SDS011;38507;53.132;6.394;2022-09-09T08:01:38;8.05;;;5.30;;
52208;SDS011;38507;53.132;6.394;2022-09-09T08:04:07;9.45;;;5.22;;
52208;SDS011;38507;53.132;6.394;2022-09-09T08:06:35;8.05;;;4.93;;
52208;SDS011;38507;53.132;6.394;2022-09-09T08:09:05;9.57;;;4.82;;
52208;SDS011;38507;53.132;6.394;2022-09-09T08:11:33;9.13;;;5.15;;
52208;SDS011;38507;53.132;6.394;2022-09-09T08:14:00;7.63;;;4.93;;
52208;SDS011;38507;53.132;6.394;2022-09-09T08:16:34;8.98;;;4.35;;
52208;SDS011;38507;53.132;6.394;2022-09-09T08:19:05;8.93;;;4.88;;
52208;SDS011;38507;53.132;6.394;2022-09-09T08:21:33;7.80;;;4.97;;
52208;SDS011;38507;53.132;6.394;2022-09-09T08:24:00;9.10;;;4.75;;
52208;SDS011;38507;53.132;6.394;2022-09-09T08:26:28;10.85;;;4.43;;
52208;SDS011;38507;53.132;6.394;2022-09-09T08:28:56;7.70;;;4.72;;
52208;SDS011;38507;53.132;6.394;2022-09-09T08:33:57;10.82;;;5.10;;
52208;SDS011;38507;53.132;6.394;2022-09-09T08:36:30;7.65;;;4.55;;
52208;SDS011;38507;53.132;6.394;2022-09-09T08:38:58;10.93;;;4.68;;
52208;SDS011;38507;53.132;6.394;2022-09-09T08:44:17;7.97;;;3.92;;
52208;SDS011;38507;53.132;6.394;2022-09-09T08:47:02;15.18;;;4.88;;
52208;SDS011;38507;53.132;6.394;2022-09-09T08:55:29;9.68;;;3.95;;
52208;SDS011;38507;53.132;6.394;2022-09-09T08:58:04;13.00;;;4.25;;
52208;SDS011;38507;53.132;6.394;2022-09-09T09:00:41;7.22;;;3.58;;
52208;SDS011;38507;53.132;6.394;2022-09-09T09:11:37;7.68;;;3.08;;
52208;SDS011;38507;53.132;6.394;2022-09-09T09:14:37;8.05;;;3.00;;
52208;SDS011;38507;53.132;6.394;2022-09-09T09:17:03;9.43;;;2.87;;
52208;SDS011;38507;53.132;6.394;2022-09-09T09:19:34;9.80;;;2.88;;
52208;SDS011;38507;53.132;6.394;2022-09-09T09:22:13;9.32;;;3.00;;
52208;SDS011;38507;53.132;6.394;2022-09-09T09:30:17;7.75;;;2.53;;
52208;SDS011;38507;53.132;6.394;2022-09-09T09:32:53;11.27;;;2.70;;
52208;SDS011;38507;53.132;6.394;2022-09-09T09:35:28;12.45;;;3.30;;
52208;SDS011;38507;53.132;6.394;2022-09-09T09:37:53;14.13;;;3.15;;
52208;SDS011;38507;53.132;6.394;2022-09-09T09:40:20;9.73;;;2.90;;
52208;SDS011;38507;53.132;6.394;2022-09-09T09:42:52;12.00;;;2.95;;
52208;SDS011;38507;53.132;6.394;2022-09-09T09:48:03;5.82;;;2.08;;
52208;SDS011;38507;53.132;6.394;2022-09-09T09:50:31;7.97;;;2.17;;
52208;SDS011;38507;53.132;6.394;2022-09-09T09:52:59;9.18;;;2.05;;
52208;SDS011;38507;53.132;6.394;2022-09-09T09:55:28;10.80;;;2.45;;
52208;SDS011;38507;53.132;6.394;2022-09-09T09:58:05;13.20;;;2.20;;
52208;SDS011;38507;53.132;6.394;2022-09-09T10:00:32;11.65;;;2.50;;
52208;SDS011;38507;53.132;6.394;2022-09-09T10:03:00;11.73;;;2.42;;
52208;SDS011;38507;53.132;6.394;2022-09-09T10:05:27;9.55;;;2.42;;
52208;SDS011;38507;53.132;6.394;2022-09-09T10:08:10;8.15;;;2.00;;
52208;SDS011;38507;53.132;6.394;2022-09-09T10:13:33;11.70;;;2.28;;
52208;SDS011;38507;53.132;6.394;2022-09-09T10:16:27;10.68;;;2.03;;
52208;SDS011;38507;53.132;6.394;2022-09-09T10:30:18;11.80;;;2.65;;
52208;SDS011;38507;53.132;6.394;2022-09-09T10:35:27;6.97;;;2.10;;
52208;SDS011;38507;53.132;6.394;2022-09-09T10:40:31;7.57;;;2.20;;
52208;SDS011;38507;53.132;6.394;2022-09-09T10:43:03;6.82;;;1.67;;
52208;SDS011;38507;53.132;6.394;2022-09-09T10:45:52;10.93;;;1.85;;
52208;SDS011;38507;53.132;6.394;2022-09-09T10:48:56;10.98;;;2.08;;
52208;SDS011;38507;53.132;6.394;2022-09-09T10:51:44;7.25;;;1.33;;
52208;SDS011;38507;53.132;6.394;2022-09-09T10:57:19;11.15;;;2.65;;
52208;SDS011;38507;53.132;6.394;2022-09-09T10:59:48;6.57;;;1.83;;
52208;SDS011;38507;53.132;6.394;2022-09-09T11:02:24;8.05;;;1.40;;
52208;SDS011;38507;53.132;6.394;2022-09-09T11:10:17;6.38;;;1.50;;
52208;SDS011;38507;53.132;6.394;2022-09-09T11:12:59;11.85;;;1.60;;
52208;SDS011;38507;53.132;6.394;2022-09-09T11:15:38;6.80;;;1.35;;
52208;SDS011;38507;53.132;6.394;2022-09-09T11:18:08;7.60;;;1.83;;
52208;SDS011;38507;53.132;6.394;2022-09-09T11:20:41;5.00;;;1.23;;
52208;SDS011;38507;53.132;6.394;2022-09-09T11:23:10;7.72;;;2.53;;
52208;SDS011;38507;53.132;6.394;2022-09-09T11:25:40;5.65;;;1.33;;
52208;SDS011;38507;53.132;6.394;2022-09-09T11:31:27;6.43;;;1.13;;
52208;SDS011;38507;53.132;6.394;2022-09-09T11:34:10;8.80;;;1.70;;
52208;SDS011;38507;53.132;6.394;2022-09-09T11:40:14;8.00;;;1.48;;
52208;SDS011;38507;53.132;6.394;2022-09-09T11:42:44;5.40;;;1.20;;
52208;SDS011;38507;53.132;6.394;2022-09-09T11:45:23;5.82;;;1.30;;
52208;SDS011;38507;53.132;6.394;2022-09-09T11:47:58;6.45;;;1.25;;
52208;SDS011;38507;53.132;6.394;2022-09-09T11:53:02;10.10;;;1.48;;
52208;SDS011;38507;53.132;6.394;2022-09-09T11:55:30;8.63;;;1.50;;
52208;SDS011;38507;53.132;6.394;2022-09-09T11:58:03;8.70;;;1.90;;
52208;SDS011;38507;53.132;6.394;2022-09-09T12:00:45;7.47;;;1.60;;
52208;SDS011;38507;53.132;6.394;2022-09-09T12:06:00;5.93;;;1.42;;
52208;SDS011;38507;53.132;6.394;2022-09-09T12:08:41;6.43;;;1.60;;
52208;SDS011;38507;53.132;6.394;2022-09-09T12:11:09;6.72;;;1.38;;
52208;SDS011;38507;53.132;6.394;2022-09-09T12:13:36;6.95;;;1.50;;
52208;SDS011;38507;53.132;6.394;2022-09-09T12:16:02;6.97;;;1.50;;
52208;SDS011;38507;53.132;6.394;2022-09-09T12:18:34;6.57;;;1.38;;
52208;SDS011;38507;53.132;6.394;2022-09-09T12:23:55;6.22;;;1.48;;
52208;SDS011;38507;53.132;6.394;2022-09-09T12:26:29;8.07;;;1.20;;
52208;SDS011;38507;53.132;6.394;2022-09-09T12:32:10;7.50;;;1.50;;
52208;SDS011;38507;53.132;6.394;2022-09-09T12:34:40;6.40;;;1.45;;
52208;SDS011;38507;53.132;6.394;2022-09-09T12:37:25;10.05;;;1.25;;
52208;SDS011;38507;53.132;6.394;2022-09-09T12:39:56;7.90;;;1.63;;
52208;SDS011;38507;53.132;6.394;2022-09-09T12:42:23;6.65;;;1.15;;
52208;SDS011;38507;53.132;6.394;2022-09-09T12:47:36;6.43;;;1.35;;
52208;SDS011;38507;53.132;6.394;2022-09-09T12:50:16;6.60;;;1.35;;
52208;SDS011;38507;53.132;6.394;2022-09-09T12:52:46;7.40;;;1.23;;
52208;SDS011;38507;53.132;6.394;2022-09-09T12:55:21;4.55;;;1.02;;
52208;SDS011;38507;53.132;6.394;2022-09-09T12:57:50;4.55;;;1.13;;
52208;SDS011;38507;53.132;6.394;2022-09-09T13:00:22;8.00;;;1.20;;
52208;SDS011;38507;53.132;6.394;2022-09-09T13:02:53;8.02;;;1.55;;
52208;SDS011;38507;53.132;6.394;2022-09-09T13:05:22;6.80;;;1.10;;
52208;SDS011;38507;53.132;6.394;2022-09-09T13:07:48;6.13;;;1.20;;
52208;SDS011;38507;53.132;6.394;2022-09-09T13:10:16;4.78;;;1.15;;
52208;SDS011;38507;53.132;6.394;2022-09-09T13:12:51;7.60;;;1.58;;
52208;SDS011;38507;53.132;6.394;2022-09-09T13:15:27;7.68;;;1.60;;
52208;SDS011;38507;53.132;6.394;2022-09-09T13:17:58;5.22;;;1.25;;
52208;SDS011;38507;53.132;6.394;2022-09-09T13:20:33;6.88;;;1.42;;
52208;SDS011;38507;53.132;6.394;2022-09-09T13:22:59;4.82;;;1.27;;
52208;SDS011;38507;53.132;6.394;2022-09-09T13:25:25;8.02;;;1.40;;
52208;SDS011;38507;53.132;6.394;2022-09-09T13:27:56;6.68;;;1.23;;
52208;SDS011;38507;53.132;6.394;2022-09-09T13:30:28;6.13;;;0.93;;
52208;SDS011;38507;53.132;6.394;2022-09-09T13:38:16;5.43;;;1.10;;
52208;SDS011;38507;53.132;6.394;2022-09-09T13:40:52;6.50;;;1.20;;
52208;SDS011;38507;53.132;6.394;2022-09-09T13:43:22;4.82;;;0.88;;
52208;SDS011;38507;53.132;6.394;2022-09-09T13:46:00;7.80;;;1.08;;
52208;SDS011;38507;53.132;6.394;2022-09-09T13:48:27;9.20;;;1.40;;
52208;SDS011;38507;53.132;6.394;2022-09-09T13:50:56;6.40;;;0.80;;
52208;SDS011;38507;53.132;6.394;2022-09-09T13:53:23;5.30;;;1.00;;
52208;SDS011;38507;53.132;6.394;2022-09-09T13:55:48;5.18;;;1.80;;
52208;SDS011;38507;53.132;6.394;2022-09-09T13:58:16;6.05;;;1.13;;
52208;SDS011;38507;53.132;6.394;2022-09-09T14:00:46;7.18;;;1.10;;
52208;SDS011;38507;53.132;6.394;2022-09-09T14:03:12;11.20;;;1.55;;
52208;SDS011;38507;53.132;6.394;2022-09-09T14:05:38;8.65;;;1.23;;
52208;SDS011;38507;53.132;6.394;2022-09-09T14:08:05;5.55;;;1.05;;
52208;SDS011;38507;53.132;6.394;2022-09-09T14:10:32;7.07;;;1.15;;
52208;SDS011;38507;53.132;6.394;2022-09-09T14:13:00;5.18;;;1.05;;
52208;SDS011;38507;53.132;6.394;2022-09-09T14:15:26;4.18;;;1.20;;
52208;SDS011;38507;53.132;6.394;2022-09-09T14:17:52;5.43;;;0.80;;
52208;SDS011;38507;53.132;6.394;2022-09-09T14:20:17;6.43;;;1.08;;
52208;SDS011;38507;53.132;6.394;2022-09-09T14:22:44;5.93;;;1.13;;
52208;SDS011;38507;53.132;6.394;2022-09-09T14:25:10;6.60;;;1.00;;
52208;SDS011;38507;53.132;6.394;2022-09-09T14:27:38;6.43;;;1.15;;
52208;SDS011;38507;53.132;6.394;2022-09-09T14:30:04;4.40;;;0.90;;
52208;SDS011;38507;53.132;6.394;2022-09-09T14:32:31;4.38;;;1.05;;
52208;SDS011;38507;53.132;6.394;2022-09-09T14:34:58;7.07;;;1.20;;
52208;SDS011;38507;53.132;6.394;2022-09-09T14:37:23;6.97;;;1.17;;
52208;SDS011;38507;53.132;6.394;2022-09-09T14:39:49;6.32;;;0.90;;
52208;SDS011;38507;53.132;6.394;2022-09-09T14:42:15;8.50;;;0.90;;
52208;SDS011;38507;53.132;6.394;2022-09-09T14:44:41;4.95;;;1.10;;
52208;SDS011;38507;53.132;6.394;2022-09-09T14:47:07;4.13;;;1.00;;
52208;SDS011;38507;53.132;6.394;2022-09-09T14:49:34;5.63;;;1.00;;
52208;SDS011;38507;53.132;6.394;2022-09-09T14:52:00;5.15;;;0.90;;
52208;SDS011;38507;53.132;6.394;2022-09-09T14:54:27;5.78;;;1.40;;
52208;SDS011;38507;53.132;6.394;2022-09-09T14:56:53;4.93;;;0.75;;
52208;SDS011;38507;53.132;6.394;2022-09-09T14:59:19;3.67;;;0.65;;
52208;SDS011;38507;53.132;6.394;2022-09-09T15:01:44;7.13;;;0.60;;
52208;SDS011;38507;53.132;6.394;2022-09-09T15:04:10;3.47;;;0.80;;
52208;SDS011;38507;53.132;6.394;2022-09-09T15:06:39;4.95;;;0.80;;
52208;SDS011;38507;53.132;6.394;2022-09-09T15:09:06;4.35;;;0.70;;
52208;SDS011;38507;53.132;6.394;2022-09-09T15:11:33;4.35;;;0.70;;
52208;SDS011;38507;53.132;6.394;2022-09-09T15:14:02;3.20;;;0.63;;
52208;SDS011;38507;53.132;6.394;2022-09-09T15:16:32;4.80;;;0.70;;
52208;SDS011;38507;53.132;6.394;2022-09-09T15:18:59;3.90;;;0.70;;
52208;SDS011;38507;53.132;6.394;2022-09-09T15:21:30;3.78;;;0.70;;
52208;SDS011;38507;53.132;6.394;2022-09-09T15:23:58;3.53;;;0.60;;
52208;SDS011;38507;53.132;6.394;2022-09-09T15:26:24;3.28;;;1.00;;
52208;SDS011;38507;53.132;6.394;2022-09-09T15:28:51;4.45;;;0.80;;
52208;SDS011;38507;53.132;6.394;2022-09-09T15:31:17;6.43;;;0.70;;
52208;SDS011;38507;53.132;6.394;2022-09-09T15:33:51;5.28;;;1.02;;
52208;SDS011;38507;53.132;6.394;2022-09-09T15:36:19;3.33;;;0.73;;
52208;SDS011;38507;53.132;6.394;2022-09-09T15:38:49;3.65;;;0.80;;
52208;SDS011;38507;53.132;6.394;2022-09-09T15:41:17;8.13;;;0.60;;
52208;SDS011;38507;53.132;6.394;2022-09-09T15:43:44;4.78;;;0.85;;
52208;SDS011;38507;53.132;6.394;2022-09-09T15:48:49;2.70;;;0.57;;
52208;SDS011;38507;53.132;6.394;2022-09-09T15:51:15;3.88;;;0.70;;
52208;SDS011;38507;53.132;6.394;2022-09-09T15:53:41;4.25;;;0.70;;
52208;SDS011;38507;53.132;6.394;2022-09-09T15:56:07;3.72;;;0.70;;
52208;SDS011;38507;53.132;6.394;2022-09-09T15:58:34;2.45;;;0.80;;
52208;SDS011;38507;53.132;6.394;2022-09-09T16:01:04;4.10;;;0.90;;
52208;SDS011;38507;53.132;6.394;2022-09-09T16:03:35;3.28;;;0.90;;
52208;SDS011;38507;53.132;6.394;2022-09-09T16:06:02;3.08;;;0.80;;
52208;SDS011;38507;53.132;6.394;2022-09-09T16:08:36;3.83;;;1.17;;
52208;SDS011;38507;53.132;6.394;2022-09-09T16:11:07;3.15;;;1.00;;
52208;SDS011;38507;53.132;6.394;2022-09-09T16:13:45;3.75;;;0.85;;
52208;SDS011;38507;53.132;6.394;2022-09-09T16:16:12;5.65;;;1.00;;
52208;SDS011;38507;53.132;6.394;2022-09-09T16:18:40;4.40;;;1.42;;
52208;SDS011;38507;53.132;6.394;2022-09-09T16:21:08;3.50;;;1.10;;
52208;SDS011;38507;53.132;6.394;2022-09-09T16:23:38;5.28;;;0.93;;
52208;SDS011;38507;53.132;6.394;2022-09-09T16:26:04;4.38;;;0.85;;
52208;SDS011;38507;53.132;6.394;2022-09-09T16:28:30;2.60;;;0.80;;
52208;SDS011;38507;53.132;6.394;2022-09-09T16:30:56;2.15;;;0.75;;
52208;SDS011;38507;53.132;6.394;2022-09-09T16:33:23;3.03;;;0.70;;
52208;SDS011;38507;53.132;6.394;2022-09-09T16:35:50;4.40;;;0.70;;
52208;SDS011;38507;53.132;6.394;2022-09-09T16:38:16;4.20;;;1.00;;
52208;SDS011;38507;53.132;6.394;2022-09-09T16:40:42;6.60;;;0.98;;
52208;SDS011;38507;53.132;6.394;2022-09-09T16:43:07;2.88;;;0.60;;
52208;SDS011;38507;53.132;6.394;2022-09-09T16:45:41;3.78;;;0.73;;
52208;SDS011;38507;53.132;6.394;2022-09-09T16:48:07;2.17;;;0.73;;
52208;SDS011;38507;53.132;6.394;2022-09-09T16:50:33;3.05;;;0.80;;
52208;SDS011;38507;53.132;6.394;2022-09-09T16:52:59;3.20;;;0.90;;
52208;SDS011;38507;53.132;6.394;2022-09-09T16:55:24;3.85;;;0.93;;
52208;SDS011;38507;53.132;6.394;2022-09-09T16:57:51;3.63;;;0.80;;
52208;SDS011;38507;53.132;6.394;2022-09-09T17:00:16;6.82;;;0.98;;
52208;SDS011;38507;53.132;6.394;2022-09-09T17:02:42;1.92;;;0.90;;
52208;SDS011;38507;53.132;6.394;2022-09-09T17:05:10;6.15;;;1.13;;
52208;SDS011;38507;53.132;6.394;2022-09-09T17:07:37;4.15;;;0.88;;
52208;SDS011;38507;53.132;6.394;2022-09-09T17:10:03;3.42;;;1.08;;
52208;SDS011;38507;53.132;6.394;2022-09-09T17:12:30;5.20;;;0.75;;